LLET

Details ICAO LLET (ETH)
Name EILAT
Region Israel
Timezone Asia/Jerusalem (UTC+3.0)
Plans Departing 89
Arriving 116
Stats Elevation 42 ft / 13 m (AMSL)
Location 29.561268° 34.960111°
Runways 1
Magnetic Variation 4.465° E
Sunrise 2018-05-25 02:44:14 UTC / 2018-05-25 05:44:14 Local
Sunset 2018-05-25 16:32:49 UTC / 2018-05-25 19:32:49 Local
Advertisement - Login to hide

Runways

ID Width Length Bearing (true) Bearing (mag) Surface Threshold Offset Overrun Length
03 89 ft / 27 m 6,249 ft / 1,905 m 27.93° 23.47° Asphalt 945 ft / 288 m 125 ft / 38 m
21 89 ft / 27 m 6,249 ft / 1,905 m 207.93° 203.47° Asphalt 0 ft / 0 m 0 ft / 0 m

Map

Weather


0- 5 10 15 20 25 30 35+ Temperature / ° C

Clouds and Precipitation
Forecast for 2018-05-25 00:00 UTC. Updated 4 hours ago

Ground ~20,000 ft ~40,000 ft Winds

METAR

LLET 250250Z 02008KT CAVOK 27/05 Q1008 RMK SCT100

TAF

TAF LLET 242306Z 2500/2524 04008KT CAVOK PROB30 2512/2516 18005KT 8000 RA FEW090TCU BECMG 2516/2518 34012KT TX38/2512Z TN26/2503Z

Frequencies

Recorded 132.55 MHz INFO
Tower 121.80 MHz TWR
Tower 119.00 MHz TWR
Warning: Do not use this data for real-world aviation or navigation. No guarantee of current accuracy is given.